Terminal Aerodrome Forecast
Issued by NWS

Home | Current Version | Previous Version | Text Only | Print | Product List | Glossary On
Versions: 1 2 3 4 5 6 7 8 9 10 11 12 13 14
000
FTUS43 KOAX 260542
TAFSNY
TAF
KSNY 260542Z 2606/2706 02012KT 1SM -SN SCT008 OVC015
     FM261500 36012KT 2SM -SN SCT011 OVC020
     FM261900 35009KT 4SM -SHSN OVC020
     FM270000 32007KT P6SM SCT018 BKN030=

USA.gov is the U.S. government's official web portal to all federal, state and local government web resources and services.